ZSAMNTAA

Guest
Details From ZSAM - Gaoqi
To NTAA - Faaa
Flight Number -
Tags Generated
Created
Modified
Stats Distance 5,957 nm / 11,032 km
Max Altitude 0 ft / 0 m
Waypoints 4
Social Downloads 0
Likes 0
Share VATSIM

Download

Looking for another format? Having issues loading an existing format? Contact us
Advertisement - Login to hide

Notes

Generated

Route

ZSAM WAGON ATAMU NTAA

ID Type Via Altitude Latitude Longitude Leg Dist Tot Dist Heading (true) Name
O ZSAM APT - 0 ft / 0 m 24.53459˚ 118.11452˚ - 0 nm - -
WAGON FIX - 0 ft / 0 m 23.58806˚ 121.77389˚ 208 nm 208 nm 105° / 107° -
ATAMU FIX - 0 ft / 0 m -17.52806˚ -149.69528˚ 5743 nm 5951 nm 107° / 113° -
O NTAA APT - 0 ft / 0 m -17.56288˚ -149.62043˚ 4 nm 5956 nm 116° / 116° -

Altitude Profile

Advertisement - Login to hide

Weather


0- 5 10 15 20 25 30 35+ Temperature / ° C

Clouds and Precipitation
Forecast for 2017-12-14 12:00 UTC. Updated 2 hours ago

Ground ~20,000 ft ~40,000 ft Winds

ZSAM

Details ICAO ZSAM (XMN)
Name GAOQI
Region China
Timezone Asia/Shanghai (UTC+8.0)
Stats Elevation 59 ft / 18 m (AMSL)
Location 24.544000° 118.127742°
Runways 1
Magnetic Variation 3.902° W

METAR

ZSAM 141000Z 04006MPS 9999 SCT033 18/11 Q1020 NOSIG

Decode

TAF

Not found

Departure Runways

ID Width Length Bearing (true) Bearing (mag) Surface Threshold Offset Overrun Length
05 148 ft / 45 m 11,147 ft / 3,398 m 51.96° 55.86° Asphalt 490 ft / 149 m 110 ft / 34 m
23 148 ft / 45 m 11,147 ft / 3,398 m 231.97° 235.87° Asphalt 660 ft / 201 m 190 ft / 58 m

NTAA

Details ICAO NTAA (PPT)
Name Faaa
Region French Polynesia
Timezone Pacific/Tahiti (UTC-10.0)
Stats Elevation 5 ft / 2 m (AMSL)
Location -17.553765° -149.607255°
Runways 1
Magnetic Variation 12.875° E

METAR

NTAA 141030Z 00000KT 9999 FEW020 SCT050 BKN300 27/22 Q1009 NOSIG

Decode

TAF

TAF AMD NTAA 140827Z 1408/1512 04006KT 9999 FEW020 BKN200 PROB30 TEMPO 1408/1412 4000 SHRA FEW016CB SCT018 BKN050 BECMG 1417/1419 04012KT BECMG 1423/1501 FEW018TCU SCT020 PROB40 TEMPO 1501/1512 01015G25KT 3000 SHRA SCT013 FEW015CB BKN040

Decode

Destination Runways

ID Width Length Bearing (true) Bearing (mag) Surface Threshold Offset Overrun Length
04 148 ft / 45 m 11,323 ft / 3,451 m 54.04° 41.16° Asphalt 1,099 ft / 335 m 0 ft / 0 m
22 148 ft / 45 m 11,323 ft / 3,451 m 234.03° 221.15° Asphalt 479 ft / 146 m 0 ft / 0 m

Approach Navaids

Runway Type Ident Frequency Range Bearing (true) Bearing (mag) Slope Elevation
04 Localiser PT 109.90 MHz 18 nm / 33 km 54.05° 41.18° - 20 ft / 6 m (AMSL)
04 Glidescope PT 109.90 MHz 10 nm / 19 km 54.03° 41.16° 3.00° 59 ft / 18 m (AMSL)
04 DME PT 109.90 MHz 18 nm / 33 km - - - 59 ft / 18 m (AMSL)